Time,TemperatureF,DewpointF,PressureIn,WindDirection,WindDirectionDegrees,WindSpeedMPH,WindSpeedGustMPH,Humidity,HourlyPrecipIn,Conditions,Clouds,dailyrainin,SoftwareType,DateUTC
2013-07-17 00:00:00,76.2,69.9,30.16,South,179,0.0,0.0,81,0.00,,,0.00,VWS V14.01,2013-07-17 05:00:00,
2013-07-17 00:05:00,76.0,69.4,30.16,South,179,0.0,0.0,80,0.00,,,0.00,VWS V14.01,2013-07-17 05:05:00,
2013-07-17 00:10:00,76.0,69.4,30.16,South,179,0.0,0.0,80,0.00,,,0.00,VWS V14.01,2013-07-17 05:10:00,
2013-07-17 00:15:00,75.8,69.2,30.16,South,179,0.0,0.0,80,0.00,,,0.00,VWS V14.01,2013-07-17 05:15:00,
2013-07-17 00:20:00,75.7,69.1,30.16,South,179,0.0,0.0,80,0.00,,,0.00,VWS V14.01,2013-07-17 05:20:00,
2013-07-17 00:25:00,75.7,69.5,30.16,South,179,0.0,0.0,81,0.00,,,0.00,VWS V14.01,2013-07-17 05:25:00,
2013-07-17 00:30:00,75.6,69.7,30.16,South,179,0.0,0.0,82,0.00,,,0.00,VWS V14.01,2013-07-17 05:30:00,
2013-07-17 00:35:00,75.5,69.3,30.16,South,179,0.0,0.0,81,0.00,,,0.00,VWS V14.01,2013-07-17 05:35:00,
2013-07-17 00:40:00,75.4,69.5,30.16,South,179,0.0,0.0,82,0.00,,,0.00,VWS V14.01,2013-07-17 05:40:00,
2013-07-17 00:45:00,75.2,69.3,30.16,South,179,0.0,0.0,82,0.00,,,0.00,VWS V14.01,2013-07-17 05:45:00,
2013-07-17 00:50:00,75.2,69.7,30.16,South,179,0.0,0.0,83,0.00,,,0.00,VWS V14.01,2013-07-17 05:50:00,
2013-07-17 00:55:00,75.0,69.1,30.16,South,179,0.0,0.0,82,0.00,,,0.00,VWS V14.01,2013-07-17 05:55:00,
2013-07-17 01:00:00,74.7,68.5,30.16,South,179,0.0,1.0,81,0.00,,,0.00,VWS V14.01,2013-07-17 06:00:00,
2013-07-17 01:05:00,74.6,68.4,30.16,South,179,0.0,0.0,81,0.00,,,0.00,VWS V14.01,2013-07-17 06:05:00,
2013-07-17 01:11:00,74.6,68.8,30.16,South,179,0.0,0.0,82,0.00,,,0.00,VWS V14.01,2013-07-17 06:11:00,
2013-07-17 01:16:00,74.5,68.7,30.16,South,179,0.0,0.0,82,0.00,,,0.00,VWS V14.01,2013-07-17 06:16:00,
2013-07-17 01:21:00,74.4,68.6,30.16,South,179,0.0,0.0,82,0.00,,,0.00,VWS V14.01,2013-07-17 06:21:00,
2013-07-17 01:26:00,74.4,68.9,30.16,South,179,0.0,0.0,83,0.00,,,0.00,VWS V14.01,2013-07-17 06:26:00,
2013-07-17 01:30:00,74.3,68.8,30.16,South,179,0.0,0.0,83,0.00,,,0.00,VWS V14.01,2013-07-17 06:30:00,
2013-07-17 01:31:00,74.3,68.8,30.16,South,179,0.0,0.0,83,0.00,,,0.00,VWS V14.01,2013-07-17 06:31:00,
2013-07-17 01:36:00,74.3,68.8,30.16,South,179,0.0,0.0,83,0.00,,,0.00,VWS V14.01,2013-07-17 06:36:00,
2013-07-17 01:41:00,74.1,68.6,30.16,South,179,0.0,0.0,83,0.00,,,0.00,VWS V14.01,2013-07-17 06:41:00,
2013-07-17 01:46:00,74.0,68.5,30.16,South,179,0.0,0.0,83,0.00,,,0.00,VWS V14.01,2013-07-17 06:46:00,
2013-07-17 01:51:00,73.9,68.1,30.16,South,179,0.0,0.0,82,0.00,,,0.00,VWS V14.01,2013-07-17 06:51:00,
2013-07-17 01:56:00,73.9,68.1,30.16,South,179,0.0,0.0,82,0.00,,,0.00,VWS V14.01,2013-07-17 06:56:00,
2013-07-17 02:00:00,73.9,68.1,30.16,South,179,0.0,0.0,82,0.00,,,0.00,VWS V14.01,2013-07-17 07:00:00,
2013-07-17 02:01:00,73.9,68.1,30.16,South,179,0.0,0.0,82,0.00,,,0.00,VWS V14.01,2013-07-17 07:01:00,
2013-07-17 02:06:00,73.8,68.0,30.16,South,179,0.0,0.0,82,0.00,,,0.00,VWS V14.01,2013-07-17 07:06:00,
2013-07-17 02:11:00,73.8,68.0,30.16,South,179,0.0,0.0,82,0.00,,,0.00,VWS V14.01,2013-07-17 07:11:00,
2013-07-17 02:16:00,73.7,67.9,30.16,South,179,0.0,0.0,82,0.00,,,0.00,VWS V14.01,2013-07-17 07:16:00,
2013-07-17 02:21:00,73.7,67.9,30.16,South,179,0.0,0.0,82,0.00,,,0.00,VWS V14.01,2013-07-17 07:21:00,
2013-07-17 02:26:00,73.6,67.8,30.16,South,179,0.0,0.0,82,0.00,,,0.00,VWS V14.01,2013-07-17 07:26:00,
2013-07-17 02:30:00,73.5,67.7,30.16,South,179,0.0,0.0,82,0.00,,,0.00,VWS V14.01,2013-07-17 07:30:00,
2013-07-17 02:31:00,73.5,68.0,30.16,South,179,0.0,0.0,83,0.00,,,0.00,VWS V14.01,2013-07-17 07:31:00,
2013-07-17 02:36:00,73.5,68.0,30.16,South,179,0.0,0.0,83,0.00,,,0.00,VWS V14.01,2013-07-17 07:36:00,
2013-07-17 02:41:00,73.3,67.8,30.16,South,179,0.0,0.0,83,0.00,,,0.00,VWS V14.01,2013-07-17 07:41:00,
2013-07-17 02:46:00,73.3,67.8,30.16,South,179,0.0,0.0,83,0.00,,,0.00,VWS V14.01,2013-07-17 07:46:00,
2013-07-17 02:51:00,73.0,67.5,30.16,South,179,0.0,0.0,83,0.00,,,0.00,VWS V14.01,2013-07-17 07:51:00,
2013-07-17 02:56:00,72.9,67.4,30.16,South,179,0.0,0.0,83,0.00,,,0.00,VWS V14.01,2013-07-17 07:56:00,
2013-07-17 03:00:00,72.8,67.3,30.16,South,179,0.0,0.0,83,0.00,,,0.00,VWS V14.01,2013-07-17 08:00:00,
2013-07-17 03:01:00,72.8,67.3,30.16,South,180,0.0,0.0,83,0.00,,,0.00,VWS V14.01,2013-07-17 08:01:00,
2013-07-17 03:06:00,72.7,67.6,30.16,South,179,0.0,0.0,84,0.00,,,0.00,VWS V14.01,2013-07-17 08:06:00,
2013-07-17 03:12:00,72.6,67.5,30.17,South,179,0.0,0.0,84,0.00,,,0.00,VWS V14.01,2013-07-17 08:12:00,
2013-07-17 03:17:00,72.5,67.4,30.17,South,179,0.0,0.0,84,0.00,,,0.00,VWS V14.01,2013-07-17 08:17:00,
2013-07-17 03:22:00,72.3,67.2,30.17,South,179,0.0,0.0,84,0.00,,,0.00,VWS V14.01,2013-07-17 08:22:00,
2013-07-17 03:27:00,72.2,67.1,30.17,South,179,0.0,0.0,84,0.00,,,0.00,VWS V14.01,2013-07-17 08:27:00,
2013-07-17 03:30:00,72.2,67.4,30.17,South,179,0.0,0.0,85,0.00,,,0.00,VWS V14.01,2013-07-17 08:30:00,
2013-07-17 03:32:00,72.2,67.1,30.17,South,179,0.0,0.0,84,0.00,,,0.00,VWS V14.01,2013-07-17 08:32:00,
2013-07-17 03:37:00,72.0,66.9,30.17,South,179,0.0,0.0,84,0.00,,,0.00,VWS V14.01,2013-07-17 08:37:00,
2013-07-17 03:42:00,71.9,66.5,30.17,South,179,0.0,0.0,83,0.00,,,0.00,VWS V14.01,2013-07-17 08:42:00,
2013-07-17 03:47:00,72.0,66.9,30.17,South,180,0.0,0.0,84,0.00,,,0.00,VWS V14.01,2013-07-17 08:47:00,
2013-07-17 03:52:00,72.1,67.0,30.17,South,179,0.0,0.0,84,0.00,,,0.00,VWS V14.01,2013-07-17 08:52:00,
2013-07-17 03:57:00,72.0,66.9,30.17,South,179,0.0,0.0,84,0.00,,,0.00,VWS V14.01,2013-07-17 08:57:00,
2013-07-17 04:00:00,72.1,66.7,30.17,South,179,0.0,0.0,83,0.00,,,0.00,VWS V14.01,2013-07-17 09:00:00,
2013-07-17 04:02:00,72.1,66.7,30.17,South,179,0.0,0.0,83,0.00,,,0.00,VWS V14.01,2013-07-17 09:02:00,
2013-07-17 04:07:00,72.0,66.6,30.17,South,179,0.0,0.0,83,0.00,,,0.00,VWS V14.01,2013-07-17 09:07:00,
2013-07-17 04:12:00,72.1,66.7,30.17,South,179,0.0,0.0,83,0.00,,,0.00,VWS V14.01,2013-07-17 09:12:00,
2013-07-17 04:17:00,72.0,66.6,30.17,South,179,0.0,0.0,83,0.00,,,0.00,VWS V14.01,2013-07-17 09:17:00,
2013-07-17 04:22:00,71.9,66.5,30.17,South,179,0.0,0.0,83,0.00,,,0.00,VWS V14.01,2013-07-17 09:22:00,
2013-07-17 04:27:00,71.9,66.8,30.17,South,180,0.0,0.0,84,0.00,,,0.00,VWS V14.01,2013-07-17 09:27:00,
2013-07-17 04:30:00,71.9,66.8,30.17,South,179,0.0,0.0,84,0.00,,,0.00,VWS V14.01,2013-07-17 09:30:00,
2013-07-17 04:32:00,71.9,66.8,30.17,South,179,0.0,0.0,84,0.00,,,0.00,VWS V14.01,2013-07-17 09:32:00,
2013-07-17 04:37:00,71.9,66.8,30.18,South,180,0.0,0.0,84,0.00,,,0.00,VWS V14.01,2013-07-17 09:37:00,
2013-07-17 04:42:00,71.8,66.7,30.17,South,179,0.0,0.0,84,0.00,,,0.00,VWS V14.01,2013-07-17 09:42:00,
2013-07-17 04:47:00,71.6,66.5,30.17,South,179,0.0,0.0,84,0.00,,,0.00,VWS V14.01,2013-07-17 09:47:00,
2013-07-17 04:52:00,71.7,66.9,30.17,South,180,0.0,0.0,85,0.00,,,0.00,VWS V14.01,2013-07-17 09:52:00,
2013-07-17 04:58:00,71.6,66.9,30.17,South,180,0.0,1.0,85,0.00,,,0.00,VWS V14.01,2013-07-17 09:58:00,
2013-07-17 05:00:00,71.6,66.9,30.17,South,179,0.0,1.0,85,0.00,,,0.00,VWS V14.01,2013-07-17 10:00:00,
2013-07-17 05:03:00,71.6,66.9,30.17,South,180,0.0,0.0,85,0.00,,,0.00,VWS V14.01,2013-07-17 10:03:00,
2013-07-17 05:08:00,71.6,66.9,30.17,South,179,0.0,0.0,85,0.00,,,0.00,VWS V14.01,2013-07-17 10:08:00,
2013-07-17 05:13:00,71.5,66.8,30.17,South,180,0.0,0.0,85,0.00,,,0.00,VWS V14.01,2013-07-17 10:13:00,
2013-07-17 05:18:00,71.4,66.7,30.17,South,179,0.0,0.0,85,0.00,,,0.00,VWS V14.01,2013-07-17 10:18:00,
2013-07-17 05:23:00,71.3,66.2,30.17,South,180,0.0,0.0,84,0.00,,,0.00,VWS V14.01,2013-07-17 10:23:00,
2013-07-17 05:28:00,71.3,66.2,30.18,South,180,0.0,2.0,84,0.00,,,0.00,VWS V14.01,2013-07-17 10:28:00,
2013-07-17 05:30:00,71.3,66.2,30.18,South,179,0.0,3.0,84,0.00,,,0.00,VWS V14.01,2013-07-17 10:30:00,
2013-07-17 05:33:00,71.3,66.2,30.18,South,180,0.0,4.0,84,0.00,,,0.00,VWS V14.01,2013-07-17 10:33:00,
2013-07-17 05:38:00,71.2,66.1,30.18,South,180,0.0,4.0,84,0.00,,,0.00,VWS V14.01,2013-07-17 10:38:00,
2013-07-17 05:43:00,71.2,66.1,30.18,South,179,0.0,4.0,84,0.00,,,0.00,VWS V14.01,2013-07-17 10:43:00,
2013-07-17 05:48:00,71.2,66.1,30.18,South,179,0.0,4.0,84,0.00,,,0.00,VWS V14.01,2013-07-17 10:48:00,
2013-07-17 05:53:00,71.2,66.1,30.18,South,179,0.0,4.0,84,0.00,,,0.00,VWS V14.01,2013-07-17 10:53:00,
2013-07-17 05:58:00,71.3,66.2,30.18,South,180,0.0,4.0,84,0.00,,,0.00,VWS V14.01,2013-07-17 10:58:00,
2013-07-17 06:00:00,71.3,66.2,30.18,South,179,0.0,4.0,84,0.00,,,0.00,VWS V14.01,2013-07-17 11:00:00,
2013-07-17 06:03:00,71.3,66.2,30.18,South,179,0.0,0.0,84,0.00,,,0.00,VWS V14.01,2013-07-17 11:03:00,
2013-07-17 06:08:00,71.2,66.1,30.18,South,179,0.0,4.0,84,0.00,,,0.00,VWS V14.01,2013-07-17 11:08:00,
2013-07-17 06:13:00,71.2,66.1,30.19,South,180,0.0,4.0,84,0.00,,,0.00,VWS V14.01,2013-07-17 11:13:00,
2013-07-17 06:18:00,71.3,66.2,30.19,South,180,0.0,4.0,84,0.00,,,0.00,VWS V14.01,2013-07-17 11:18:00,
2013-07-17 06:23:00,71.5,66.4,30.19,South,179,0.0,4.0,84,0.00,,,0.00,VWS V14.01,2013-07-17 11:23:00,
2013-07-17 06:29:00,71.6,66.5,30.18,South,178,5.0,5.0,84,0.00,,,0.00,VWS V14.01,2013-07-17 11:29:00,
2013-07-17 06:30:00,71.6,66.2,30.18,South,178,0.0,5.0,83,0.00,,,0.00,VWS V14.01,2013-07-17 11:30:00,
2013-07-17 06:34:00,71.7,66.3,30.19,South,178,0.0,3.0,83,0.00,,,0.00,VWS V14.01,2013-07-17 11:34:00,
2013-07-17 06:39:00,71.9,66.5,30.19,South,178,0.0,3.0,83,0.00,,,0.00,VWS V14.01,2013-07-17 11:39:00,
2013-07-17 06:44:00,72.4,66.9,30.19,South,177,0.0,3.0,83,0.00,,,0.00,VWS V14.01,2013-07-17 11:44:00,
2013-07-17 06:49:00,73.0,67.2,30.19,South,177,0.0,4.0,82,0.00,,,0.00,VWS V14.01,2013-07-17 11:49:00,
2013-07-17 06:54:00,73.7,67.5,30.19,South,177,0.0,4.0,81,0.00,,,0.00,VWS V14.01,2013-07-17 11:54:00,
2013-07-17 06:59:00,74.3,67.7,30.19,South,176,2.0,5.0,80,0.00,,,0.00,VWS V14.01,2013-07-17 11:59:00,
2013-07-17 07:00:00,74.6,68.0,30.19,South,177,2.0,5.0,80,0.00,,,0.00,VWS V14.01,2013-07-17 12:00:00,
2013-07-17 07:04:00,75.1,67.8,30.19,South,176,2.0,3.0,78,0.00,,,0.00,VWS V14.01,2013-07-17 12:04:00,
2013-07-17 07:09:00,75.7,68.4,30.19,SSE,168,3.0,7.0,78,0.00,,,0.00,VWS V14.01,2013-07-17 12:09:00,
2013-07-17 07:14:00,76.3,68.6,30.19,SSE,168,3.0,7.0,77,0.00,,,0.00,VWS V14.01,2013-07-17 12:14:00,
2013-07-17 07:19:00,76.9,68.4,30.18,South,169,0.0,7.0,75,0.00,,,0.00,VWS V14.01,2013-07-17 12:19:00,
2013-07-17 07:24:00,77.3,68.8,30.18,South,169,0.0,7.0,75,0.00,,,0.00,VWS V14.01,2013-07-17 12:24:00,
2013-07-17 07:29:00,77.9,68.9,30.18,South,170,0.0,7.0,74,0.00,,,0.00,VWS V14.01,2013-07-17 12:29:00,
2013-07-17 07:30:00,78.1,69.1,30.18,South,170,3.0,7.0,74,0.00,,,0.00,VWS V14.01,2013-07-17 12:30:00,
2013-07-17 07:34:00,78.5,69.5,30.18,South,170,5.0,6.0,74,0.00,,,0.00,VWS V14.01,2013-07-17 12:34:00,
2013-07-17 07:39:00,78.9,69.5,30.18,South,177,4.0,9.0,73,0.00,,,0.00,VWS V14.01,2013-07-17 12:39:00,
2013-07-17 07:44:00,79.4,69.6,30.18,South,177,4.0,9.0,72,0.00,,,0.00,VWS V14.01,2013-07-17 12:44:00,
2013-07-17 07:49:00,79.8,69.6,30.18,South,177,8.0,10.0,71,0.00,,,0.00,VWS V14.01,2013-07-17 12:49:00,
2013-07-17 07:54:00,80.1,69.4,30.19,South,186,6.0,10.0,70,0.00,,,0.00,VWS V14.01,2013-07-17 12:54:00,
2013-07-17 07:59:00,80.4,69.7,30.18,South,185,4.0,10.0,70,0.00,,,0.00,VWS V14.01,2013-07-17 12:59:00,
2013-07-17 08:00:00,80.5,69.8,30.19,South,185,4.0,10.0,70,0.00,,,0.00,VWS V14.01,2013-07-17 13:00:00,
2013-07-17 08:04:00,80.8,70.1,30.19,South,187,5.0,6.0,70,0.00,,,0.00,VWS V14.01,2013-07-17 13:04:00,
2013-07-17 08:09:00,81.2,70.1,30.19,South,180,4.0,7.0,69,0.00,,,0.00,VWS V14.01,2013-07-17 13:09:00,
2013-07-17 08:15:00,81.7,70.6,30.19,South,179,2.0,7.0,69,0.00,,,0.00,VWS V14.01,2013-07-17 13:15:00,
2013-07-17 08:20:00,82.1,70.9,30.19,South,180,4.0,8.0,69,0.00,,,0.00,VWS V14.01,2013-07-17 13:20:00,
2013-07-17 08:25:00,82.4,70.8,30.19,South,185,4.0,11.0,68,0.00,,,0.00,VWS V14.01,2013-07-17 13:25:00,
2013-07-17 08:30:00,82.3,70.7,30.19,South,181,0.0,11.0,68,0.00,,,0.00,VWS V14.01,2013-07-17 13:30:00,
2013-07-17 08:35:00,82.1,70.9,30.19,South,191,2.0,6.0,69,0.00,,,0.00,VWS V14.01,2013-07-17 13:35:00,
2013-07-17 08:40:00,82.3,71.1,30.19,South,188,5.0,6.0,69,0.00,,,0.00,VWS V14.01,2013-07-17 13:40:00,
2013-07-17 08:45:00,82.7,71.5,30.19,South,187,5.0,10.0,69,0.00,,,0.00,VWS V14.01,2013-07-17 13:45:00,
2013-07-17 08:50:00,82.9,71.3,30.19,South,185,5.0,10.0,68,0.00,,,0.00,VWS V14.01,2013-07-17 13:50:00,
2013-07-17 08:55:00,82.9,70.8,30.19,South,181,6.0,10.0,67,0.00,,,0.00,VWS V14.01,2013-07-17 13:55:00,
2013-07-17 09:00:00,82.8,71.6,30.19,South,179,2.0,10.0,69,0.00,,,0.00,VWS V14.01,2013-07-17 14:00:00,
2013-07-17 09:05:00,82.8,71.6,30.19,South,180,2.0,5.0,69,0.00,,,0.00,VWS V14.01,2013-07-17 14:05:00,
2013-07-17 09:10:00,82.9,72.1,30.19,South,181,3.0,5.0,70,0.00,,,0.00,VWS V14.01,2013-07-17 14:10:00,
2013-07-17 09:15:00,83.3,72.1,30.19,South,179,2.0,9.0,69,0.00,,,0.00,VWS V14.01,2013-07-17 14:15:00,
2013-07-17 09:20:00,83.9,72.7,30.19,South,179,4.0,9.0,69,0.00,,,0.00,VWS V14.01,2013-07-17 14:20:00,
2013-07-17 09:25:00,84.5,72.8,30.19,South,189,0.0,13.0,68,0.00,,,0.00,VWS V14.01,2013-07-17 14:25:00,
2013-07-17 09:30:00,85.0,72.8,30.19,South,183,6.0,13.0,67,0.00,,,0.00,VWS V14.01,2013-07-17 14:30:00,
2013-07-17 09:35:00,85.0,72.4,30.19,WSW,254,4.0,10.0,66,0.00,,,0.00,VWS V14.01,2013-07-17 14:35:00,
2013-07-17 09:40:00,85.2,73.0,30.19,South,187,6.0,10.0,67,0.00,,,0.00,VWS V14.01,2013-07-17 14:40:00,
2013-07-17 09:45:00,85.4,72.8,30.19,South,178,5.0,10.0,66,0.00,,,0.00,VWS V14.01,2013-07-17 14:45:00,
2013-07-17 09:50:00,85.7,73.0,30.19,South,183,13.0,13.0,66,0.00,,,0.00,VWS V14.01,2013-07-17 14:50:00,
2013-07-17 09:55:00,85.9,72.3,30.19,SSW,192,6.0,14.0,64,0.00,,,0.00,VWS V14.01,2013-07-17 14:55:00,
2013-07-17 10:00:00,85.9,73.2,30.18,SSW,193,7.0,14.0,66,0.00,,,0.00,VWS V14.01,2013-07-17 15:00:00,
2013-07-17 10:05:00,86.2,73.5,30.18,SSW,194,6.0,10.0,66,0.00,,,0.00,VWS V14.01,2013-07-17 15:05:00,
2013-07-17 10:11:00,86.7,73.5,30.18,South,179,6.0,10.0,65,0.00,,,0.00,VWS V14.01,2013-07-17 15:11:00,
2013-07-17 10:16:00,87.2,73.6,30.18,South,185,2.0,10.0,64,0.00,,,0.00,VWS V14.01,2013-07-17 15:16:00,
2013-07-17 10:21:00,87.6,74.4,30.18,South,190,1.0,11.0,65,0.00,,,0.00,VWS V14.01,2013-07-17 15:21:00,
2013-07-17 10:26:00,87.9,74.7,30.18,South,173,5.0,12.0,65,0.00,,,0.00,VWS V14.01,2013-07-17 15:26:00,
2013-07-17 10:30:00,88.1,73.9,30.18,South,178,9.0,12.0,63,0.00,,,0.00,VWS V14.01,2013-07-17 15:30:00,
2013-07-17 10:31:00,88.1,73.9,30.18,South,177,9.0,12.0,63,0.00,,,0.00,VWS V14.01,2013-07-17 15:31:00,
2013-07-17 10:36:00,88.3,74.6,30.18,South,171,7.0,11.0,64,0.00,,,0.00,VWS V14.01,2013-07-17 15:36:00,
2013-07-17 10:41:00,88.5,74.8,30.18,South,175,4.0,11.0,64,0.00,,,0.00,VWS V14.01,2013-07-17 15:41:00,
2013-07-17 10:46:00,88.7,74.0,30.18,South,180,6.0,13.0,62,0.00,,,0.00,VWS V14.01,2013-07-17 15:46:00,
2013-07-17 10:51:00,88.9,73.7,30.18,South,183,2.0,13.0,61,0.00,,,0.00,VWS V14.01,2013-07-17 15:51:00,
2013-07-17 10:56:00,89.0,73.3,30.18,South,169,9.0,13.0,60,0.00,,,0.00,VWS V14.01,2013-07-17 15:56:00,
2013-07-17 11:00:00,89.0,73.3,30.18,South,179,4.0,13.0,60,0.00,,,0.00,VWS V14.01,2013-07-17 16:00:00,
2013-07-17 11:01:00,89.0,73.3,30.18,South,182,4.0,5.0,60,0.00,,,0.00,VWS V14.01,2013-07-17 16:01:00,
2013-07-17 11:06:00,89.2,74.0,30.18,South,191,5.0,10.0,61,0.00,,,0.00,VWS V14.01,2013-07-17 16:06:00,
2013-07-17 11:11:00,89.5,74.3,30.18,South,191,4.0,13.0,61,0.00,,,0.00,VWS V14.01,2013-07-17 16:11:00,
2013-07-17 11:16:00,89.7,74.0,30.18,WSW,258,4.0,13.0,60,0.00,,,0.00,VWS V14.01,2013-07-17 16:16:00,
2013-07-17 11:21:00,89.9,74.2,30.18,South,173,1.0,13.0,60,0.00,,,0.00,VWS V14.01,2013-07-17 16:21:00,
2013-07-17 11:26:00,90.1,74.3,30.18,South,189,4.0,13.0,60,0.00,,,0.00,VWS V14.01,2013-07-17 16:26:00,
2013-07-17 11:30:00,90.2,73.9,30.18,South,181,6.0,13.0,59,0.00,,,0.00,VWS V14.01,2013-07-17 16:30:00,
2013-07-17 11:31:00,90.2,73.9,30.18,South,181,4.0,6.0,59,0.00,,,0.00,VWS V14.01,2013-07-17 16:31:00,
2013-07-17 11:36:00,90.3,73.5,30.18,SSE,166,5.0,9.0,58,0.00,,,0.00,VWS V14.01,2013-07-17 16:36:00,
2013-07-17 11:41:00,90.4,73.6,30.18,SSW,193,5.0,15.0,58,0.00,,,0.00,VWS V14.01,2013-07-17 16:41:00,
2013-07-17 11:46:00,90.2,72.9,30.18,West,260,7.0,15.0,57,0.00,,,0.00,VWS V14.01,2013-07-17 16:46:00,
2013-07-17 11:51:00,89.9,72.1,30.18,South,181,9.0,15.0,56,0.00,,,0.00,VWS V14.01,2013-07-17 16:51:00,
2013-07-17 11:57:00,90.1,73.3,30.18,WSW,250,6.0,15.0,58,0.00,,,0.00,VWS V14.01,2013-07-17 16:57:00,
2013-07-17 12:00:00,90.3,72.5,30.18,South,179,5.0,15.0,56,0.00,,,0.00,VWS V14.01,2013-07-17 17:00:00,
2013-07-17 12:02:00,90.3,73.0,30.18,South,183,5.0,10.0,57,0.00,,,0.00,VWS V14.01,2013-07-17 17:02:00,
2013-07-17 12:07:00,90.4,72.1,30.18,South,179,10.0,15.0,55,0.00,,,0.00,VWS V14.01,2013-07-17 17:07:00,
2013-07-17 12:12:00,90.5,73.7,30.18,WSW,245,4.0,15.0,58,0.00,,,0.00,VWS V14.01,2013-07-17 17:12:00,
2013-07-17 12:17:00,90.7,73.9,30.18,SSE,162,0.0,15.0,58,0.00,,,0.00,VWS V14.01,2013-07-17 17:17:00,
2013-07-17 12:22:00,90.7,72.9,30.18,South,175,9.0,15.0,56,0.00,,,0.00,VWS V14.01,2013-07-17 17:22:00,
2013-07-17 12:27:00,90.6,72.2,30.18,South,174,9.0,15.0,55,0.00,,,0.00,VWS V14.01,2013-07-17 17:27:00,
2013-07-17 12:30:00,90.6,73.3,30.18,WSW,257,9.0,15.0,57,0.00,,,0.00,VWS V14.01,2013-07-17 17:30:00,
2013-07-17 12:32:00,90.6,71.7,30.18,WSW,256,1.0,12.0,54,0.00,,,0.00,VWS V14.01,2013-07-17 17:32:00,
2013-07-17 12:37:00,90.6,72.2,30.18,South,179,7.0,13.0,55,0.00,,,0.00,VWS V14.01,2013-07-17 17:37:00,
2013-07-17 12:42:00,90.6,73.3,30.18,South,191,9.0,13.0,57,0.00,,,0.00,VWS V14.01,2013-07-17 17:42:00,
2013-07-17 12:47:00,90.7,71.8,30.18,SSW,193,7.0,13.0,54,0.00,,,0.00,VWS V14.01,2013-07-17 17:47:00,
2013-07-17 12:52:00,90.9,72.5,30.18,SSE,168,10.0,13.0,55,0.00,,,0.00,VWS V14.01,2013-07-17 17:52:00,
2013-07-17 12:57:00,91.2,73.3,30.18,SSW,193,5.0,13.0,56,0.00,,,0.00,VWS V14.01,2013-07-17 17:57:00,
2013-07-17 13:00:00,91.2,72.8,30.18,WSW,258,3.0,13.0,55,0.00,,,0.00,VWS V14.01,2013-07-17 18:00:00,
2013-07-17 13:02:00,91.2,72.2,30.18,WSW,250,0.0,7.0,54,0.00,,,0.00,VWS V14.01,2013-07-17 18:02:00,
2013-07-17 13:07:00,91.3,72.9,30.17,South,190,6.0,12.0,55,0.00,,,0.00,VWS V14.01,2013-07-17 18:07:00,
2013-07-17 13:12:00,91.3,72.9,30.17,South,183,0.0,13.0,55,0.00,,,0.00,VWS V14.01,2013-07-17 18:12:00,
2013-07-17 13:17:00,91.4,72.4,30.17,South,169,5.0,13.0,54,0.00,,,0.00,VWS V14.01,2013-07-17 18:17:00,
2013-07-17 13:22:00,91.7,72.7,30.17,West,261,4.0,13.0,54,0.00,,,0.00,VWS V14.01,2013-07-17 18:22:00,
2013-07-17 13:27:00,91.9,73.4,30.17,South,180,5.0,14.0,55,0.00,,,0.00,VWS V14.01,2013-07-17 18:27:00,
2013-07-17 13:30:00,92.0,73.0,30.17,South,191,9.0,14.0,54,0.00,,,0.00,VWS V14.01,2013-07-17 18:30:00,
2013-07-17 13:32:00,92.0,72.4,30.17,South,172,9.0,12.0,53,0.00,,,0.00,VWS V14.01,2013-07-17 18:32:00,
2013-07-17 13:37:00,92.2,73.2,30.17,South,176,6.0,12.0,54,0.00,,,0.00,VWS V14.01,2013-07-17 18:37:00,
2013-07-17 13:42:00,92.3,73.3,30.17,WSW,250,7.0,12.0,54,0.00,,,0.00,VWS V14.01,2013-07-17 18:42:00,
2013-07-17 13:47:00,92.2,73.2,30.16,West,275,1.0,12.0,54,0.00,,,0.00,VWS V14.01,2013-07-17 18:47:00,
2013-07-17 13:53:00,92.3,72.7,30.16,SSE,168,10.0,12.0,53,0.00,,,0.00,VWS V14.01,2013-07-17 18:53:00,
2013-07-17 13:58:00,92.3,72.7,30.16,West,260,3.0,12.0,53,0.00,,,0.00,VWS V14.01,2013-07-17 18:58:00,
2013-07-17 14:00:00,92.2,72.6,30.16,SSW,193,6.0,13.0,53,0.00,,,0.00,VWS V14.01,2013-07-17 19:00:00,
2013-07-17 14:03:00,92.2,73.2,30.16,South,180,9.0,15.0,54,0.00,,,0.00,VWS V14.01,2013-07-17 19:03:00,
2013-07-17 14:08:00,91.9,72.9,30.16,South,187,7.0,15.0,54,0.00,,,0.00,VWS V14.01,2013-07-17 19:08:00,
2013-07-17 14:13:00,91.5,72.0,30.15,South,179,5.0,15.0,53,0.00,,,0.00,VWS V14.01,2013-07-17 19:13:00,
2013-07-17 14:18:00,91.4,72.4,30.15,South,187,9.0,15.0,54,0.00,,,0.00,VWS V14.01,2013-07-17 19:18:00,
2013-07-17 14:23:00,91.7,72.7,30.15,SSE,154,9.0,15.0,54,0.00,,,0.00,VWS V14.01,2013-07-17 19:23:00,
2013-07-17 14:28:00,91.9,74.0,30.15,South,175,4.0,15.0,56,0.00,,,0.00,VWS V14.01,2013-07-17 19:28:00,
2013-07-17 14:30:00,92.0,73.0,30.15,South,177,7.0,15.0,54,0.00,,,0.00,VWS V14.01,2013-07-17 19:30:00,
2013-07-17 14:33:00,92.0,73.5,30.15,South,175,6.0,11.0,55,0.00,,,0.00,VWS V14.01,2013-07-17 19:33:00,
2013-07-17 14:38:00,92.1,73.6,30.14,South,185,10.0,12.0,55,0.00,,,0.00,VWS V14.01,2013-07-17 19:38:00,
2013-07-17 14:43:00,92.3,72.7,30.14,South,188,5.0,15.0,53,0.00,,,0.00,VWS V14.01,2013-07-17 19:43:00,
2013-07-17 14:48:00,92.4,72.8,30.14,South,185,4.0,15.0,53,0.00,,,0.00,VWS V14.01,2013-07-17 19:48:00,
2013-07-17 14:53:00,92.5,72.9,30.14,WSW,258,6.0,15.0,53,0.00,,,0.00,VWS V14.01,2013-07-17 19:53:00,
2013-07-17 14:58:00,92.7,72.5,30.14,South,189,9.0,15.0,52,0.00,,,0.00,VWS V14.01,2013-07-17 19:58:00,
2013-07-17 15:00:00,92.7,72.5,30.14,WSW,245,2.0,17.0,52,0.00,,,0.00,VWS V14.01,2013-07-17 20:00:00,
2013-07-17 15:03:00,92.8,73.2,30.14,West,263,9.0,12.0,53,0.00,,,0.00,VWS V14.01,2013-07-17 20:03:00,
2013-07-17 15:08:00,92.8,73.2,30.14,South,183,3.0,12.0,53,0.00,,,0.00,VWS V14.01,2013-07-17 20:08:00,
2013-07-17 15:13:00,92.9,73.3,30.13,South,181,9.0,17.0,53,0.00,,,0.00,VWS V14.01,2013-07-17 20:13:00,
2013-07-17 15:18:00,93.3,74.2,30.13,West,275,2.0,17.0,54,0.00,,,0.00,VWS V14.01,2013-07-17 20:18:00,
2013-07-17 15:23:00,93.4,73.2,30.13,South,178,9.0,17.0,52,0.00,,,0.00,VWS V14.01,2013-07-17 20:23:00,
2013-07-17 15:29:00,92.9,73.8,30.13,South,182,6.0,17.0,54,0.00,,,0.00,VWS V14.01,2013-07-17 20:29:00,
2013-07-17 15:30:00,92.8,73.2,30.13,WSW,250,3.0,17.0,53,0.00,,,0.00,VWS V14.01,2013-07-17 20:30:00,
2013-07-17 15:34:00,92.8,73.7,30.13,South,191,3.0,7.0,54,0.00,,,0.00,VWS V14.01,2013-07-17 20:34:00,
2013-07-17 15:39:00,92.9,73.8,30.13,South,172,6.0,12.0,54,0.00,,,0.00,VWS V14.01,2013-07-17 20:39:00,
2013-07-17 15:44:00,93.0,73.9,30.13,WSW,254,4.0,12.0,54,0.00,,,0.00,VWS V14.01,2013-07-17 20:44:00,
2013-07-17 15:49:00,93.1,74.0,30.13,South,173,6.0,15.0,54,0.00,,,0.00,VWS V14.01,2013-07-17 20:49:00,
2013-07-17 15:54:00,93.2,73.5,30.12,West,259,8.0,15.0,53,0.00,,,0.00,VWS V14.01,2013-07-17 20:54:00,
2013-07-17 15:59:00,93.4,74.3,30.12,SSE,167,10.0,15.0,54,0.00,,,0.00,VWS V14.01,2013-07-17 20:59:00,
2013-07-17 16:00:00,93.5,73.2,30.12,South,178,9.0,15.0,52,0.00,,,0.00,VWS V14.01,2013-07-17 21:00:00,
2013-07-17 16:04:00,93.6,72.8,30.12,WSW,250,5.0,10.0,51,0.00,,,0.00,VWS V14.01,2013-07-17 21:04:00,
2013-07-17 16:09:00,93.3,74.2,30.12,SSW,193,6.0,10.0,54,0.00,,,0.00,VWS V14.01,2013-07-17 21:09:00,
2013-07-17 16:14:00,93.0,73.3,30.12,South,184,4.0,10.0,53,0.00,,,0.00,VWS V14.01,2013-07-17 21:14:00,
2013-07-17 16:19:00,92.9,72.7,30.11,South,191,5.0,10.0,52,0.00,,,0.00,VWS V14.01,2013-07-17 21:19:00,
2013-07-17 16:24:00,92.8,73.7,30.12,South,181,3.0,10.0,54,0.00,,,0.00,VWS V14.01,2013-07-17 21:24:00,
2013-07-17 16:29:00,92.6,74.6,30.12,South,183,3.0,10.0,56,0.00,,,0.00,VWS V14.01,2013-07-17 21:29:00,
2013-07-17 16:30:00,92.6,74.6,30.12,South,182,1.0,10.0,56,0.00,,,0.00,VWS V14.01,2013-07-17 21:30:00,
2013-07-17 16:34:00,92.8,74.3,30.11,South,175,4.0,9.0,55,0.00,,,0.00,VWS V14.01,2013-07-17 21:34:00,
2013-07-17 16:39:00,93.1,75.1,30.11,South,178,3.0,9.0,56,0.00,,,0.00,VWS V14.01,2013-07-17 21:39:00,
2013-07-17 16:44:00,93.5,74.9,30.11,South,173,5.0,9.0,55,0.00,,,0.00,VWS V14.01,2013-07-17 21:44:00,
2013-07-17 16:49:00,93.7,74.6,30.11,SSE,160,7.0,11.0,54,0.00,,,0.00,VWS V14.01,2013-07-17 21:49:00,
2013-07-17 16:54:00,93.5,73.8,30.11,South,177,6.0,11.0,53,0.00,,,0.00,VWS V14.01,2013-07-17 21:54:00,
2013-07-17 16:59:00,93.1,72.9,30.11,South,169,7.0,11.0,52,0.00,,,0.00,VWS V14.01,2013-07-17 21:59:00,
2013-07-17 17:00:00,92.9,73.3,30.11,South,169,3.0,11.0,53,0.00,,,0.00,VWS V14.01,2013-07-17 22:00:00,
2013-07-17 17:04:00,92.3,73.8,30.11,South,171,5.0,6.0,55,0.00,,,0.00,VWS V14.01,2013-07-17 22:04:00,
2013-07-17 17:10:00,92.2,73.7,30.10,South,180,4.0,9.0,55,0.00,,,0.00,VWS V14.01,2013-07-17 22:10:00,
2013-07-17 17:15:00,92.5,74.5,30.10,South,182,2.0,9.0,56,0.00,,,0.00,VWS V14.01,2013-07-17 22:15:00,
2013-07-17 17:20:00,92.8,73.7,30.10,South,175,6.0,10.0,54,0.00,,,0.00,VWS V14.01,2013-07-17 22:20:00,
2013-07-17 17:25:00,93.1,74.0,30.10,South,179,4.0,10.0,54,0.00,,,0.00,VWS V14.01,2013-07-17 22:25:00,
2013-07-17 17:30:00,93.3,74.2,30.10,South,170,5.0,10.0,54,0.00,,,0.00,VWS V14.01,2013-07-17 22:30:00,
2013-07-17 17:35:00,93.1,73.4,30.10,SSE,166,4.0,12.0,53,0.00,,,0.00,VWS V14.01,2013-07-17 22:35:00,
2013-07-17 17:40:00,93.1,74.0,30.09,South,171,6.0,12.0,54,0.00,,,0.00,VWS V14.01,2013-07-17 22:40:00,
2013-07-17 17:45:00,93.2,74.6,30.09,South,173,3.0,12.0,55,0.00,,,0.00,VWS V14.01,2013-07-17 22:45:00,
2013-07-17 17:50:00,93.3,73.6,30.09,SSE,162,4.0,12.0,53,0.00,,,0.00,VWS V14.01,2013-07-17 22:50:00,
2013-07-17 17:55:00,93.1,73.4,30.09,South,186,3.0,12.0,53,0.00,,,0.00,VWS V14.01,2013-07-17 22:55:00,
2013-07-17 18:00:00,92.6,74.1,30.09,South,186,0.0,12.0,55,0.00,,,0.00,VWS V14.01,2013-07-17 23:00:00,
2013-07-17 18:05:00,92.5,75.1,30.08,South,186,0.0,1.0,57,0.00,,,0.00,VWS V14.01,2013-07-17 23:05:00,
2013-07-17 18:10:00,92.5,75.6,30.08,South,186,1.0,4.0,58,0.00,,,0.00,VWS V14.01,2013-07-17 23:10:00,
2013-07-17 18:15:00,92.8,75.3,30.08,SE,138,3.0,5.0,57,0.00,,,0.00,VWS V14.01,2013-07-17 23:15:00,
2013-07-17 18:20:00,92.7,74.7,30.09,SSE,160,2.0,9.0,56,0.00,,,0.00,VWS V14.01,2013-07-17 23:20:00,
2013-07-17 18:25:00,92.2,74.8,30.08,SSE,166,1.0,9.0,57,0.00,,,0.00,VWS V14.01,2013-07-17 23:25:00,
2013-07-17 18:30:00,91.4,75.1,30.08,SSE,163,1.0,9.0,59,0.00,,,0.00,VWS V14.01,2013-07-17 23:30:00,
2013-07-17 18:35:00,90.8,74.5,30.08,SSE,152,0.0,5.0,59,0.00,,,0.00,VWS V14.01,2013-07-17 23:35:00,
2013-07-17 18:40:00,90.5,74.7,30.08,ESE,119,2.0,5.0,60,0.00,,,0.00,VWS V14.01,2013-07-17 23:40:00,
2013-07-17 18:45:00,90.3,75.0,30.08,ESE,115,2.0,6.0,61,0.00,,,0.00,VWS V14.01,2013-07-17 23:45:00,
2013-07-17 18:51:00,90.0,74.8,30.08,ESE,115,2.0,6.0,61,0.00,,,0.00,VWS V14.01,2013-07-17 23:51:00,
2013-07-17 18:56:00,89.7,75.0,30.08,ESE,115,2.0,6.0,62,0.00,,,0.00,VWS V14.01,2013-07-17 23:56:00,
2013-07-17 19:00:00,89.5,74.8,30.08,ESE,115,1.0,6.0,62,0.00,,,0.00,VWS V14.01,2013-07-18 00:00:00,
2013-07-17 19:01:00,89.5,74.8,30.08,ESE,115,1.0,6.0,62,0.00,,,0.00,VWS V14.01,2013-07-18 00:01:00,
2013-07-17 19:06:00,89.5,75.2,30.08,ESE,115,2.0,3.0,63,0.00,,,0.00,VWS V14.01,2013-07-18 00:06:00,
2013-07-17 19:11:00,89.7,75.4,30.08,ESE,115,2.0,3.0,63,0.00,,,0.00,VWS V14.01,2013-07-18 00:11:00,
2013-07-17 19:16:00,89.7,75.4,30.08,ESE,115,2.0,4.0,63,0.00,,,0.00,VWS V14.01,2013-07-18 00:16:00,
2013-07-17 19:21:00,89.8,75.5,30.07,ESE,110,3.0,4.0,63,0.00,,,0.00,VWS V14.01,2013-07-18 00:21:00,
2013-07-17 19:26:00,90.0,75.7,30.07,ESE,110,1.0,4.0,63,0.00,,,0.00,VWS V14.01,2013-07-18 00:26:00,
2013-07-17 19:30:00,90.1,76.3,30.07,ESE,110,3.0,4.0,64,0.00,,,0.00,VWS V14.01,2013-07-18 00:30:00,
2013-07-17 19:31:00,90.1,76.3,30.07,ESE,110,3.0,3.0,64,0.00,,,0.00,VWS V14.01,2013-07-18 00:31:00,
2013-07-17 19:36:00,90.2,76.4,30.07,ESE,110,0.0,4.0,64,0.00,,,0.00,VWS V14.01,2013-07-18 00:36:00,
2013-07-17 19:41:00,90.4,76.6,30.07,ESE,113,4.0,4.0,64,0.00,,,0.00,VWS V14.01,2013-07-18 00:41:00,
2013-07-17 19:46:00,90.5,76.7,30.07,SE,127,2.0,4.0,64,0.00,,,0.00,VWS V14.01,2013-07-18 00:46:00,
2013-07-17 19:51:00,89.8,74.6,30.07,SSE,148,2.0,10.0,61,0.00,,,0.00,VWS V14.01,2013-07-18 00:51:00,
2013-07-17 19:56:00,88.9,73.7,30.07,SSE,150,2.0,10.0,61,0.00,,,0.00,VWS V14.01,2013-07-18 00:56:00,
2013-07-17 20:00:00,88.4,72.8,30.07,SSE,150,3.0,10.0,60,0.00,,,0.00,VWS V14.01,2013-07-18 01:00:00,
2013-07-17 20:01:00,88.4,72.8,30.07,SSE,150,5.0,5.0,60,0.00,,,0.00,VWS V14.01,2013-07-18 01:01:00,
2013-07-17 20:06:00,88.1,73.0,30.06,SSE,150,1.0,5.0,61,0.00,,,0.00,VWS V14.01,2013-07-18 01:06:00,
2013-07-17 20:11:00,87.9,73.3,30.06,SSE,150,2.0,5.0,62,0.00,,,0.00,VWS V14.01,2013-07-18 01:11:00,
2013-07-17 20:17:00,87.7,74.0,30.06,SSE,150,1.0,5.0,64,0.00,,,0.00,VWS V14.01,2013-07-18 01:17:00,
2013-07-17 20:22:00,87.5,74.3,30.06,SSE,150,1.0,5.0,65,0.00,,,0.00,VWS V14.01,2013-07-18 01:22:00,
2013-07-17 20:27:00,87.2,74.5,30.06,SSE,150,0.0,5.0,66,0.00,,,0.00,VWS V14.01,2013-07-18 01:27:00,
2013-07-17 20:30:00,86.9,74.2,30.06,SSE,150,0.0,5.0,66,0.00,,,0.00,VWS V14.01,2013-07-18 01:30:00,
2013-07-17 20:32:00,86.8,74.1,30.06,SSE,150,0.0,0.0,66,0.00,,,0.00,VWS V14.01,2013-07-18 01:32:00,
2013-07-17 20:37:00,86.4,74.2,30.06,SSE,150,0.0,0.0,67,0.00,,,0.00,VWS V14.01,2013-07-18 01:37:00,
2013-07-17 20:42:00,86.0,74.2,30.06,SSE,150,0.0,0.0,68,0.00,,,0.00,VWS V14.01,2013-07-18 01:42:00,
2013-07-17 20:47:00,85.4,73.6,30.06,SSE,150,0.0,0.0,68,0.00,,,0.00,VWS V14.01,2013-07-18 01:47:00,
2013-07-17 20:48:00,85.3,73.6,30.06,SSE,150,0.0,0.0,68,0.00,,,0.00,VWS V14.01,2013-07-18 01:48:00,
2013-07-17 20:53:00,84.9,73.6,30.06,SSE,150,0.0,0.0,69,0.00,,,0.00,VWS V14.01,2013-07-18 01:53:00,
2013-07-17 20:58:00,84.5,73.7,30.06,SSE,150,0.0,0.0,70,0.00,,,0.00,VWS V14.01,2013-07-18 01:58:00,
2013-07-17 21:00:00,84.2,73.4,30.06,SSE,150,0.0,0.0,70,0.00,,,0.00,VWS V14.01,2013-07-18 02:00:00,
2013-07-17 21:03:00,84.0,73.2,30.06,SSE,150,0.0,0.0,70,0.00,,,0.00,VWS V14.01,2013-07-18 02:03:00,
2013-07-17 21:08:00,83.6,73.2,30.06,SSE,150,0.0,0.0,71,0.00,,,0.00,VWS V14.01,2013-07-18 02:08:00,
2013-07-17 21:13:00,83.3,73.3,30.06,SSE,150,0.0,0.0,72,0.00,,,0.00,VWS V14.01,2013-07-18 02:13:00,
2013-07-17 21:18:00,82.9,73.4,30.06,SSE,150,0.0,0.0,73,0.00,,,0.00,VWS V14.01,2013-07-18 02:18:00,
2013-07-17 21:23:00,82.5,73.0,30.06,SSE,151,0.0,0.0,73,0.00,,,0.00,VWS V14.01,2013-07-18 02:23:00,
2013-07-17 21:28:00,82.2,72.7,30.06,SSE,151,0.0,0.0,73,0.00,,,0.00,VWS V14.01,2013-07-18 02:28:00,
2013-07-17 21:30:00,82.1,73.4,30.06,SSE,150,0.0,0.0,75,0.00,,,0.00,VWS V14.01,2013-07-18 02:30:00,
2013-07-17 21:33:00,82.0,73.3,30.05,SSE,150,0.0,0.0,75,0.00,,,0.00,VWS V14.01,2013-07-18 02:33:00,
2013-07-17 21:38:00,81.7,73.8,30.06,SSE,151,0.0,0.0,77,0.00,,,0.00,VWS V14.01,2013-07-18 02:38:00,
2013-07-17 21:43:00,81.4,73.1,30.06,SSE,151,0.0,0.0,76,0.00,,,0.00,VWS V14.01,2013-07-18 02:43:00,
2013-07-17 21:48:00,81.1,72.4,30.06,SSE,150,0.0,0.0,75,0.00,,,0.00,VWS V14.01,2013-07-18 02:48:00,
2013-07-17 21:53:00,80.8,72.5,30.06,SSE,151,0.0,0.0,76,0.00,,,0.00,VWS V14.01,2013-07-18 02:53:00,
2013-07-17 21:59:00,80.6,73.1,30.06,SSE,150,0.0,0.0,78,0.00,,,0.00,VWS V14.01,2013-07-18 02:59:00,
2013-07-17 22:00:00,80.5,73.0,30.06,SSE,151,0.0,0.0,78,0.00,,,0.00,VWS V14.01,2013-07-18 03:00:00,
2013-07-17 22:04:00,80.5,73.0,30.06,SSE,150,0.0,0.0,78,0.00,,,0.00,VWS V14.01,2013-07-18 03:04:00,
2013-07-17 22:09:00,80.3,73.2,30.06,SSE,151,0.0,0.0,79,0.00,,,0.00,VWS V14.01,2013-07-18 03:09:00,
2013-07-17 22:14:00,80.2,73.1,30.06,SSE,150,0.0,0.0,79,0.00,,,0.00,VWS V14.01,2013-07-18 03:14:00,
2013-07-17 22:19:00,80.0,72.9,30.06,SSE,151,0.0,0.0,79,0.00,,,0.00,VWS V14.01,2013-07-18 03:19:00,
2013-07-17 22:24:00,79.8,73.1,30.06,SSE,151,0.0,0.0,80,0.00,,,0.00,VWS V14.01,2013-07-18 03:24:00,
2013-07-17 22:29:00,79.6,72.9,30.06,SSE,151,0.0,0.0,80,0.00,,,0.00,VWS V14.01,2013-07-18 03:29:00,
2013-07-17 22:30:00,79.5,72.8,30.06,SSE,150,0.0,0.0,80,0.00,,,0.00,VWS V14.01,2013-07-18 03:30:00,
2013-07-17 22:34:00,79.3,72.2,30.06,SSE,151,0.0,0.0,79,0.00,,,0.00,VWS V14.01,2013-07-18 03:34:00,
2013-07-17 22:39:00,79.1,72.0,30.06,SSE,151,0.0,0.0,79,0.00,,,0.00,VWS V14.01,2013-07-18 03:39:00,
2013-07-17 22:44:00,79.0,71.9,30.06,SSE,151,0.0,0.0,79,0.00,,,0.00,VWS V14.01,2013-07-18 03:44:00,
2013-07-17 22:49:00,79.0,72.3,30.06,SSE,151,0.0,0.0,80,0.00,,,0.00,VWS V14.01,2013-07-18 03:49:00,
2013-07-17 22:54:00,78.9,72.2,30.06,SSE,151,0.0,0.0,80,0.00,,,0.00,VWS V14.01,2013-07-18 03:54:00,
2013-07-17 22:59:00,78.7,72.0,30.06,SSE,151,0.0,0.0,80,0.00,,,0.00,VWS V14.01,2013-07-18 03:59:00,
2013-07-17 23:00:00,78.7,72.0,30.06,SSE,151,0.0,0.0,80,0.00,,,0.00,VWS V14.01,2013-07-18 04:00:00,
2013-07-17 23:01:00,78.7,72.0,30.06,SSE,151,0.0,0.0,80,0.00,,,0.00,VWS V14.01,2013-07-18 04:01:00,
2013-07-17 23:02:00,78.7,72.0,30.06,SSE,150,0.0,0.0,80,0.00,,,0.00,VWS V14.01,2013-07-18 04:02:00,
2013-07-17 23:03:00,78.7,72.0,30.06,SSE,151,0.0,0.0,80,0.00,,,0.00,VWS V14.01,2013-07-18 04:03:00,
2013-07-17 23:07:00,78.5,71.4,30.06,SSE,151,0.0,0.0,79,0.00,,,0.00,VWS V14.01,2013-07-18 04:07:00,
2013-07-17 23:12:00,78.5,71.4,30.06,SSE,151,0.0,0.0,79,0.00,,,0.00,VWS V14.01,2013-07-18 04:12:00,
2013-07-17 23:17:00,78.4,71.3,30.05,SSE,151,0.0,0.0,79,0.00,,,0.00,VWS V14.01,2013-07-18 04:17:00,
2013-07-17 23:22:00,78.4,71.3,30.05,SSE,151,0.0,0.0,79,0.00,,,0.00,VWS V14.01,2013-07-18 04:22:00,
2013-07-17 23:27:00,78.4,71.3,30.05,SSE,151,0.0,0.0,79,0.00,,,0.00,VWS V14.01,2013-07-18 04:27:00,
2013-07-17 23:30:00,78.4,71.3,30.05,SSE,151,0.0,0.0,79,0.00,,,0.00,VWS V14.01,2013-07-18 04:30:00,
2013-07-17 23:32:00,78.4,71.3,30.05,SSE,151,0.0,0.0,79,0.00,,,0.00,VWS V14.01,2013-07-18 04:32:00,
2013-07-17 23:37:00,78.4,71.3,30.05,SSE,151,0.0,0.0,79,0.00,,,0.00,VWS V14.01,2013-07-18 04:37:00,
2013-07-17 23:42:00,78.3,71.3,30.05,SSE,151,0.0,0.0,79,0.00,,,0.00,VWS V14.01,2013-07-18 04:42:00,
2013-07-17 23:47:00,78.3,70.9,30.05,SSE,151,0.0,2.0,78,0.00,,,0.00,VWS V14.01,2013-07-18 04:47:00,
2013-07-17 23:53:00,78.3,71.3,30.05,SSE,151,0.0,2.0,79,0.00,,,0.00,VWS V14.01,2013-07-18 04:53:00,
2013-07-17 23:58:00,78.3,70.9,30.05,SSE,151,0.0,2.0,78,0.00,,,0.00,VWS V14.01,2013-07-18 04:58:00,